Time;durP1;ratioP1;P1;durP2;ratioP2;P2;SDS_P1;SDS_P2;PMS_P1;PMS_P2;Temp;Humidity;BMP_temperature;BMP_pressure;BME280_temperature;BME280_humidity;BME280_pressure;Samples;Min_cycle;Max_cycle;Signal;HPM_P1;HPM_P2
2024/02/08 00:01:58;;;;;;;3.00;2.10;;;11.30;40.60;;;;;;10519915;28;20220;-71
2024/02/08 00:07:02;;;;;;;2.00;1.80;;;11.20;40.60;;;;;;10520981;28;21032;-70
2024/02/08 00:12:08;;;;;;;2.13;1.97;;;11.30;41.10;;;;;;10525005;28;20214;-70
2024/02/08 00:17:11;;;;;;;2.43;2.10;;;11.30;41.10;;;;;;10520226;28;20227;-70
2024/02/08 00:22:16;;;;;;;2.10;2.00;;;11.30;40.80;;;;;;10525045;28;20234;-68
2024/02/08 00:27:19;;;;;;;2.77;2.33;;;11.30;41.10;;;;;;10522845;27;20226;-68
2024/02/08 00:32:25;;;;;;;3.30;2.20;;;11.30;41.10;;;;;;10524067;28;20605;-68
2024/02/08 00:37:31;;;;;;;2.13;2.03;;;11.30;41.10;;;;;;10528081;28;20238;-70
2024/02/08 00:42:34;;;;;;;2.00;1.90;;;11.30;41.10;;;;;;10522519;28;20247;-70
2024/02/08 00:47:37;;;;;;;2.47;2.27;;;11.20;41.00;;;;;;10528906;28;20733;-70
2024/02/08 00:52:42;;;;;;;2.57;2.37;;;11.20;41.00;;;;;;10523273;28;20233;-70
2024/02/08 00:57:45;;;;;;;3.23;2.40;;;11.20;41.00;;;;;;10523229;28;20234;-70
2024/02/08 01:02:48;;;;;;;2.30;2.10;;;11.30;41.10;;;;;;10530869;28;20223;-70
2024/02/08 01:07:53;;;;;;;2.20;2.10;;;11.30;41.10;;;;;;10527531;28;20568;-68
2024/02/08 01:12:56;;;;;;;3.97;2.50;;;11.30;41.10;;;;;;10529618;28;20220;-68
2024/02/08 01:18:01;;;;;;;3.30;1.90;;;11.30;41.10;;;;;;10536639;28;20227;-70
2024/02/08 01:23:06;;;;;;;2.37;1.97;;;11.40;41.20;;;;;;10539714;28;20212;-70
2024/02/08 01:28:09;;;;;;;2.00;1.90;;;11.40;41.20;;;;;;10534444;27;20231;-68
2024/02/08 01:33:13;;;;;;;3.37;2.10;;;11.40;41.20;;;;;;10537905;28;20234;-68
2024/02/08 01:38:18;;;;;;;2.13;1.80;;;11.40;41.20;;;;;;10535563;28;20310;-72
2024/02/08 01:43:21;;;;;;;1.93;1.63;;;11.40;41.20;;;;;;10533179;28;20215;-71
2024/02/08 01:48:25;;;;;;;2.10;1.90;;;11.40;41.20;;;;;;10527477;28;20298;-71
2024/02/08 01:53:32;;;;;;;1.83;1.73;;;11.50;41.30;;;;;;10533817;27;20243;-71
2024/02/08 01:58:35;;;;;;;1.87;1.67;;;11.50;41.40;;;;;;10536338;27;20598;-70
2024/02/08 02:03:41;;;;;;;1.60;1.50;;;11.50;41.30;;;;;;10524321;28;20230;-72
2024/02/08 02:08:53;;;;;;;1.90;1.60;;;11.50;42.00;;;;;;10539032;27;20223;-71
2024/02/08 02:13:58;;;;;;;1.50;1.40;;;11.50;41.80;;;;;;10530592;28;20231;-72
2024/02/08 02:19:03;;;;;;;1.60;1.50;;;11.50;41.30;;;;;;10529036;28;20770;-72
2024/02/08 02:24:10;;;;;;;1.93;1.50;;;11.60;41.30;;;;;;10535497;28;20231;-70
2024/02/08 02:29:21;;;;;;;1.50;1.40;;;11.60;41.50;;;;;;10529003;28;20314;-70
2024/02/08 02:34:25;;;;;;;1.47;1.37;;;11.70;41.40;;;;;;10535806;28;20270;-68
2024/02/08 02:39:31;;;;;;;1.40;1.30;;;11.70;41.40;;;;;;10527345;28;20247;-70
2024/02/08 02:44:34;;;;;;;1.50;1.40;;;11.70;41.40;;;;;;10535560;28;20216;-70
2024/02/08 02:49:38;;;;;;;1.60;1.50;;;11.70;41.40;;;;;;10528885;28;20230;-71
2024/02/08 02:54:43;;;;;;;1.50;1.40;;;11.80;41.50;;;;;;10532229;28;20234;-71
2024/02/08 02:59:46;;;;;;;1.30;1.20;;;11.80;42.30;;;;;;10530143;28;20225;-71
2024/02/08 03:04:50;;;;;;;1.20;1.10;;;11.80;41.50;;;;;;10528113;28;20252;-71
2024/02/08 03:09:54;;;;;;;1.37;1.03;;;11.80;41.50;;;;;;10528072;28;20220;-71
2024/02/08 03:14:59;;;;;;;1.53;1.40;;;11.90;41.60;;;;;;10526914;28;20224;-68
2024/02/08 03:20:04;;;;;;;1.30;1.20;;;11.90;41.60;;;;;;10527087;28;20234;-70
2024/02/08 03:25:14;;;;;;;1.40;1.30;;;11.90;41.60;;;;;;10529456;28;20237;-71
2024/02/08 03:30:20;;;;;;;1.17;1.17;;;12.00;41.70;;;;;;10526286;28;20247;-72
2024/02/08 03:35:27;;;;;;;1.30;1.20;;;12.00;41.70;;;;;;10531417;28;20250;-73
2024/02/08 03:40:32;;;;;;;1.73;1.57;;;12.00;41.70;;;;;;10529154;28;20229;-71
2024/02/08 03:45:39;;;;;;;1.40;1.30;;;12.00;41.70;;;;;;10523803;28;20310;-70
2024/02/08 03:50:43;;;;;;;1.40;1.30;;;12.00;41.70;;;;;;10524361;28;20218;-70
2024/02/08 03:55:48;;;;;;;1.20;1.20;;;12.00;41.70;;;;;;10527914;28;20239;-70
2024/02/08 04:00:53;;;;;;;2.40;1.30;;;12.00;42.30;;;;;;10526559;28;20334;-70
2024/02/08 04:06:03;;;;;;;1.17;1.07;;;11.90;41.60;;;;;;10526423;28;20223;-70
2024/02/08 04:54:11;;;;;;;1.10;1.10;;;12.20;41.90;;;;;;10534607;28;20223;-68
2024/02/08 04:59:20;;;;;;;1.30;1.20;;;12.20;42.60;;;;;;10534711;28;20227;-68
2024/02/08 05:04:25;;;;;;;2.60;1.00;;;12.20;41.90;;;;;;10535349;28;20332;-70
2024/02/08 05:09:30;;;;;;;1.30;1.20;;;12.30;42.00;;;;;;10531314;28;20243;-70
2024/02/08 05:14:35;;;;;;;1.60;1.37;;;12.30;42.00;;;;;;10533577;28;20705;-71
2024/02/08 05:19:43;;;;;;;3.20;1.40;;;12.30;42.00;;;;;;10533466;28;20224;-71
2024/02/08 05:24:48;;;;;;;0.90;0.90;;;12.30;42.00;;;;;;10533987;28;20743;-70
2024/02/08 05:29:55;;;;;;;1.10;1.10;;;12.30;42.00;;;;;;10524982;28;20215;-70
2024/02/08 05:35:00;;;;;;;1.30;1.20;;;12.30;42.00;;;;;;10525918;28;20250;-70
2024/02/08 05:40:06;;;;;;;1.07;1.00;;;12.30;42.00;;;;;;10530641;28;20333;-70
2024/02/08 05:45:19;;;;;;;1.00;1.00;;;12.30;42.00;;;;;;10520334;28;20235;-70
2024/02/08 05:50:22;;;;;;;1.30;1.20;;;12.30;42.00;;;;;;10521894;28;20727;-70
2024/02/08 05:55:26;;;;;;;1.07;1.00;;;12.30;42.00;;;;;;10527367;28;20235;-73
2024/02/08 06:00:36;;;;;;;1.50;1.17;;;12.30;42.00;;;;;;10528500;27;20227;-73
2024/02/08 06:05:40;;;;;;;1.10;1.10;;;12.30;42.00;;;;;;10527572;28;20231;-73
2024/02/08 06:10:45;;;;;;;1.80;1.13;;;12.30;42.00;;;;;;10525918;28;20311;-73
2024/02/08 06:16:00;;;;;;;1.50;1.00;;;12.20;41.90;;;;;;10535105;28;20323;-79
2024/02/08 06:21:12;;;;;;;0.97;0.97;;;12.30;42.00;;;;;;10528784;28;20274;-72
2024/02/08 06:26:28;;;;;;;1.23;1.13;;;12.20;41.90;;;;;;10528053;27;20227;-72
2024/02/08 06:31:40;;;;;;;1.00;1.00;;;12.20;41.90;;;;;;10523232;28;20337;-72
2024/02/08 06:36:58;;;;;;;2.37;1.30;;;12.20;42.50;;;;;;10528238;28;20251;-72
2024/02/08 06:42:29;;;;;;;1.70;1.60;;;12.10;42.20;;;;;;10532378;27;20322;-68
2024/02/08 06:47:54;;;;;;;1.13;1.13;;;12.10;42.30;;;;;;10528718;28;20255;-67
2024/02/08 07:41:12;;;;;;;1.90;1.80;;;11.80;44.30;;;;;;10532019;28;20830;-67
2024/02/08 07:46:16;;;;;;;1.30;1.20;;;11.80;44.00;;;;;;10532657;28;20608;-72
2024/02/08 07:51:23;;;;;;;1.20;1.20;;;11.80;43.70;;;;;;10524363;28;20219;-72
2024/02/08 07:56:37;;;;;;;1.33;1.23;;;11.80;44.10;;;;;;10525571;28;20234;-72
2024/02/08 08:01:43;;;;;;;1.20;1.10;;;11.90;43.90;;;;;;10518560;28;20242;-71
2024/02/08 08:06:50;;;;;;;1.80;1.70;;;11.80;43.90;;;;;;10517036;28;20231;-72
2024/02/08 08:11:54;;;;;;;3.00;1.60;;;11.80;44.60;;;;;;10527850;28;20219;-72
2024/02/08 08:17:16;;;;;;;1.90;1.63;;;11.80;44.20;;;;;;10530998;27;20634;-70
2024/02/08 08:27:52;;;;;;;1.20;1.20;;;11.80;44.80;;;;;;10535085;28;20223;-70
2024/02/08 08:33:07;;;;;;;1.97;1.77;;;11.90;44.30;;;;;;10537927;28;20226;-70
2024/02/08 08:38:28;;;;;;;1.70;1.60;;;11.80;44.20;;;;;;10537212;28;20685;-71
2024/02/08 08:43:34;;;;;;;1.10;1.10;;;11.80;44.70;;;;;;10538202;28;20231;-71
2024/02/08 08:48:38;;;;;;;1.23;1.13;;;11.80;44.50;;;;;;10537005;28;20246;-70
2024/02/08 08:53:44;;;;;;;1.40;1.30;;;11.80;44.60;;;;;;10539191;28;20235;-71
2024/02/08 08:58:49;;;;;;;2.40;1.47;;;11.80;45.00;;;;;;10535639;28;20737;-71
2024/02/08 09:04:09;;;;;;;1.03;1.03;;;11.80;44.70;;;;;;10532743;28;20228;-70
2024/02/08 09:09:28;;;;;;;1.00;1.00;;;11.90;44.80;;;;;;10532562;28;20708;-70
2024/02/08 09:14:32;;;;;;;1.00;1.00;;;11.90;45.20;;;;;;10532506;28;20222;-70
2024/02/08 09:19:37;;;;;;;2.13;1.10;;;11.90;44.70;;;;;;10531848;28;20231;-70
2024/02/08 09:24:44;;;;;;;1.23;1.20;;;11.90;44.80;;;;;;10530961;28;20747;-71
2024/02/08 09:29:56;;;;;;;1.70;1.60;;;12.00;45.50;;;;;;10531799;27;20219;-71
2024/02/08 09:35:00;;;;;;;1.40;1.30;;;12.00;44.90;;;;;;10525262;28;20310;-71
2024/02/08 09:40:18;;;;;;;1.57;1.40;;;12.00;45.00;;;;;;10536256;28;20846;-71
2024/02/08 09:50:47;;;;;;;1.10;1.00;;;12.10;46.20;;;;;;10529963;28;20230;-71
2024/02/08 09:55:55;;;;;;;1.80;1.43;;;12.20;45.10;;;;;;10534640;28;20266;-70
2024/02/08 10:01:00;;;;;;;1.40;1.30;;;12.30;46.00;;;;;;10532049;28;20346;-70
2024/02/08 10:06:22;;;;;;;1.37;1.23;;;12.40;45.70;;;;;;10527581;28;20813;-70
2024/02/08 10:11:36;;;;;;;0.83;0.83;;;12.50;45.70;;;;;;10534280;28;20233;-71
2024/02/08 10:16:47;;;;;;;1.00;0.90;;;12.50;45.80;;;;;;10529401;28;20266;-71
2024/02/08 10:21:59;;;;;;;0.90;0.90;;;12.60;45.60;;;;;;10534281;28;20231;-71
2024/02/08 10:27:06;;;;;;;1.10;1.00;;;12.70;46.70;;;;;;10525020;28;20314;-71
2024/02/08 10:32:14;;;;;;;0.77;0.77;;;12.80;46.20;;;;;;10533824;28;20227;-70
2024/02/08 10:37:46;;;;;;;0.93;0.93;;;12.90;45.60;;;;;;10536787;28;20230;-71
2024/02/08 10:42:45;;;;;;;0.80;0.73;;;13.10;45.70;;;;;;10531144;28;20246;-71
2024/02/08 10:47:49;;;;;;;0.83;0.83;;;13.20;45.80;;;;;;10529334;28;20227;-71
2024/02/08 10:52:52;;;;;;;0.70;0.70;;;13.40;45.30;;;;;;10528659;27;20297;-67
2024/02/08 10:58:21;;;;;;;0.80;0.80;;;13.40;45.30;;;;;;10526652;27;20224;-67
2024/02/08 11:03:33;;;;;;;1.00;0.80;;;13.60;45.70;;;;;;10531478;27;20235;-67
2024/02/08 11:08:50;;;;;;;1.07;1.00;;;13.70;45.20;;;;;;10528406;28;20314;-69
2024/02/08 11:13:59;;;;;;;1.13;0.93;;;13.80;45.10;;;;;;10528949;27;20243;-69
2024/02/08 11:19:04;;;;;;;0.90;0.90;;;13.90;45.10;;;;;;10524986;28;20216;-70
2024/02/08 11:24:08;;;;;;;0.90;0.90;;;14.10;45.60;;;;;;10522706;28;20231;-69
2024/02/08 11:29:18;;;;;;;0.77;0.77;;;14.20;44.80;;;;;;10528886;27;20249;-69
2024/02/08 11:34:33;;;;;;;2.10;0.90;;;14.30;44.70;;;;;;10527852;28;20284;-69
2024/02/08 11:39:40;;;;;;;0.80;0.80;;;14.40;44.70;;;;;;10534060;28;20577;-71
2024/02/08 11:44:45;;;;;;;0.90;0.90;;;14.50;44.60;;;;;;10526236;28;20226;-71
2024/02/08 11:49:53;;;;;;;0.80;0.80;;;14.60;44.40;;;;;;10530336;28;20298;-71
2024/02/08 11:55:05;;;;;;;0.70;0.70;;;14.70;44.10;;;;;;10528983;28;20751;-71
2024/02/08 12:00:18;;;;;;;0.55;0.55;;;14.80;44.20;;;;;;10529369;28;20212;-70
2024/02/08 12:05:22;;;;;;;0.70;0.70;;;15.00;44.30;;;;;;10526555;28;20284;-69
2024/02/08 12:10:25;;;;;;;3.27;2.97;;;15.00;44.20;;;;;;10522881;28;20281;-67
2024/02/08 12:15:34;;;;;;;2.40;2.20;;;15.00;43.80;;;;;;10528707;28;20239;-67
2024/02/08 12:20:37;;;;;;;1.80;1.70;;;15.10;44.40;;;;;;10528277;28;20227;-67
2024/02/08 12:25:42;;;;;;;1.60;1.50;;;15.10;44.40;;;;;;10528766;28;20309;-70
2024/02/08 12:30:50;;;;;;;1.10;1.10;;;15.20;44.00;;;;;;10525747;28;20234;-71
2024/02/08 12:35:54;;;;;;;1.70;1.60;;;15.30;43.60;;;;;;10532236;27;20238;-71
2024/02/08 12:40:57;;;;;;;1.70;1.60;;;15.30;43.20;;;;;;10531656;28;20228;-71
2024/02/08 12:46:07;;;;;;;2.20;2.00;;;15.30;43.20;;;;;;10529648;28;20238;-71
2024/02/08 12:51:13;;;;;;;2.27;1.20;;;15.40;42.90;;;;;;10526915;28;20637;-71
2024/02/08 12:56:20;;;;;;;1.10;1.03;;;15.40;42.90;;;;;;10526625;28;20231;-71
2024/02/08 13:01:25;;;;;;;0.83;0.83;;;15.40;42.50;;;;;;10534845;28;20263;-72
2024/02/08 13:06:29;;;;;;;1.10;1.00;;;15.30;42.70;;;;;;10528905;28;20222;-70
2024/02/08 13:11:32;;;;;;;1.23;1.00;;;15.30;42.50;;;;;;10533692;28;20227;-70
2024/02/08 13:16:37;;;;;;;1.13;0.70;;;15.30;42.70;;;;;;10536916;28;20231;-70
2024/02/08 13:21:43;;;;;;;1.60;1.50;;;15.20;42.50;;;;;;10521662;28;20238;-70
2024/02/08 13:26:50;;;;;;;2.83;2.27;;;15.20;42.60;;;;;;10519631;28;20227;-70
2024/02/08 13:31:54;;;;;;;1.93;1.60;;;15.10;43.00;;;;;;10512862;28;20281;-70
2024/02/08 13:36:58;;;;;;;4.63;3.47;;;15.10;42.90;;;;;;10529001;28;20222;-70
2024/02/08 13:42:02;;;;;;;2.37;2.17;;;15.10;42.90;;;;;;10533267;27;20319;-70
2024/02/08 13:47:09;;;;;;;1.30;1.20;;;15.10;42.70;;;;;;10526889;28;20231;-70
2024/02/08 13:52:20;;;;;;;1.00;1.00;;;15.10;42.80;;;;;;10527513;28;20733;-70
2024/02/08 13:57:23;;;;;;;0.80;0.80;;;15.10;42.90;;;;;;10529050;28;20224;-70
2024/02/08 14:02:28;;;;;;;0.80;0.80;;;15.20;42.90;;;;;;10531794;28;20320;-70
2024/02/08 14:07:32;;;;;;;1.87;0.90;;;15.20;43.00;;;;;;10525717;28;20304;-70
2024/02/08 14:12:35;;;;;;;0.90;0.80;;;15.20;42.80;;;;;;10528729;28;20219;-70
2024/02/08 14:17:41;;;;;;;1.00;0.90;;;15.30;42.70;;;;;;10532510;28;20321;-70
2024/02/08 14:22:45;;;;;;;1.10;1.00;;;15.30;42.60;;;;;;10528311;28;20220;-70
2024/02/08 14:27:48;;;;;;;1.17;0.90;;;15.30;42.60;;;;;;10527866;28;20227;-70
2024/02/08 14:32:52;;;;;;;1.10;1.00;;;15.20;42.40;;;;;;10529654;28;20222;-70
2024/02/08 14:37:56;;;;;;;1.00;0.90;;;15.40;42.30;;;;;;10531319;28;20247;-70
2024/02/08 14:42:59;;;;;;;1.30;0.87;;;15.40;42.30;;;;;;10535520;28;20231;-70
2024/02/08 14:48:04;;;;;;;0.93;0.80;;;15.40;42.10;;;;;;10529048;28;20254;-70
2024/02/08 14:53:07;;;;;;;1.10;0.80;;;15.30;41.90;;;;;;10533251;28;20227;-69
2024/02/08 14:58:31;;;;;;;1.40;1.00;;;15.30;41.90;;;;;;10529984;27;20702;-69
2024/02/08 15:03:38;;;;;;;1.07;0.97;;;15.30;41.90;;;;;;10534785;27;20227;-67
2024/02/08 15:08:47;;;;;;;1.23;1.07;;;15.30;41.60;;;;;;10528360;27;20426;-67
2024/02/08 15:13:51;;;;;;;2.63;1.00;;;15.30;41.80;;;;;;10522821;27;20237;-70
2024/02/08 15:18:55;;;;;;;2.40;2.20;;;15.20;41.40;;;;;;10527305;28;20220;-70
2024/02/08 15:29:33;;;;;;;3.03;1.20;;;15.20;41.60;;;;;;10526125;28;20307;-70
2024/02/08 15:34:46;;;;;;;5.00;1.50;;;15.20;41.10;;;;;;10526176;28;20235;-70
2024/02/08 15:45:21;;;;;;;2.17;1.40;;;15.00;41.00;;;;;;10511834;28;20682;-70
2024/02/08 15:50:32;;;;;;;4.13;1.57;;;15.10;41.10;;;;;;10525026;28;20225;-70
2024/02/08 15:55:42;;;;;;;6.13;1.47;;;15.00;40.80;;;;;;10526233;28;20229;-70
2024/02/08 16:11:35;;;;;;;4.47;2.00;;;14.90;40.90;;;;;;10519182;28;20230;-68
2024/02/08 16:16:39;;;;;;;5.10;3.10;;;14.80;40.80;;;;;;10526650;28;20721;-68
2024/02/08 16:21:43;;;;;;;5.73;2.40;;;14.80;40.90;;;;;;10526048;28;20225;-68
2024/02/08 16:26:53;;;;;;;3.90;2.40;;;14.80;40.60;;;;;;10527543;28;20223;-68
2024/02/08 16:31:56;;;;;;;6.40;2.57;;;14.80;40.80;;;;;;10524254;28;20223;-68
2024/02/08 16:37:24;;;;;;;5.73;2.23;;;14.80;40.60;;;;;;10528787;28;21069;-68
2024/02/08 16:42:34;;;;;;;7.30;2.37;;;14.80;40.50;;;;;;10537359;28;20219;-68
2024/02/08 16:47:51;;;;;;;3.97;2.27;;;14.80;40.70;;;;;;10530580;28;20234;-68
2024/02/08 16:52:59;;;;;;;8.57;2.90;;;14.80;40.70;;;;;;10533784;28;20230;-68
2024/02/08 16:58:16;;;;;;;5.80;2.63;;;14.70;40.40;;;;;;10534140;28;20226;-68
2024/02/08 17:03:50;;;;;;;8.03;2.30;;;14.70;40.60;;;;;;10527722;27;21122;-68
2024/02/08 17:09:15;;;;;;;6.77;2.80;;;14.70;40.70;;;;;;10531793;28;20227;-67
2024/02/08 17:14:32;;;;;;;6.37;3.00;;;14.70;40.50;;;;;;10535031;28;20227;-71
2024/02/08 17:19:51;;;;;;;5.60;2.77;;;14.70;40.60;;;;;;10535042;28;20226;-71
2024/02/08 17:25:19;;;;;;;9.50;2.80;;;14.70;40.70;;;;;;10534528;27;20307;-71
2024/02/08 17:30:36;;;;;;;7.30;2.60;;;14.60;40.40;;;;;;10530755;28;20658;-68
2024/02/08 17:35:40;;;;;;;7.27;2.90;;;14.60;40.50;;;;;;10532083;27;20231;-68
2024/02/08 17:40:45;;;;;;;8.03;2.73;;;14.60;40.50;;;;;;10537163;28;20243;-68
2024/02/08 17:45:54;;;;;;;4.40;2.40;;;14.60;40.20;;;;;;10531242;28;20227;-68
2024/02/08 17:50:59;;;;;;;13.13;4.20;;;14.60;40.60;;;;;;10529786;28;20216;-68
2024/02/08 17:56:07;;;;;;;9.67;3.40;;;14.60;40.40;;;;;;10531257;28;20219;-69
2024/02/08 18:01:15;;;;;;;6.20;2.90;;;14.60;40.30;;;;;;10532530;28;20967;-69
2024/02/08 18:06:23;;;;;;;10.27;3.40;;;14.50;40.50;;;;;;10532572;28;20238;-70
2024/02/08 18:11:29;;;;;;;11.73;3.50;;;14.50;40.30;;;;;;10523647;28;20223;-70
2024/02/08 18:16:39;;;;;;;10.23;3.30;;;14.50;40.30;;;;;;10530303;28;20225;-70
2024/02/08 18:21:44;;;;;;;9.80;2.83;;;14.50;40.50;;;;;;10533324;28;20232;-70
2024/02/08 18:26:49;;;;;;;10.40;3.13;;;14.50;40.50;;;;;;10527016;28;20220;-70
2024/02/08 18:31:52;;;;;;;10.07;3.47;;;14.50;40.40;;;;;;10533522;28;20303;-70
2024/02/08 18:36:56;;;;;;;11.73;3.07;;;14.50;40.50;;;;;;10530249;27;20735;-70
2024/02/08 18:42:06;;;;;;;10.63;3.67;;;14.40;40.50;;;;;;10533296;28;20246;-70
2024/02/08 18:47:13;;;;;;;7.13;2.80;;;14.40;40.30;;;;;;10533538;27;20224;-70
2024/02/08 18:52:23;;;;;;;5.40;2.57;;;14.40;40.50;;;;;;10530108;28;20227;-68
2024/02/08 18:57:28;;;;;;;10.93;3.27;;;14.40;40.50;;;;;;10529896;28;20594;-69
2024/02/08 19:02:32;;;;;;;8.70;2.83;;;14.40;40.30;;;;;;10531935;28;20243;-69
2024/02/08 19:07:36;;;;;;;9.80;3.70;;;14.40;40.50;;;;;;10527970;28;20251;-69
2024/02/08 19:12:41;;;;;;;10.40;4.27;;;14.40;40.30;;;;;;10533555;28;20812;-69
2024/02/08 19:17:45;;;;;;;8.23;3.67;;;14.40;40.40;;;;;;10528423;28;20261;-69
2024/02/08 19:23:05;;;;;;;6.87;3.73;;;14.40;40.50;;;;;;10529129;28;20220;-69
2024/02/08 19:28:09;;;;;;;8.43;3.10;;;14.40;40.30;;;;;;10533751;27;20215;-69
2024/02/08 19:33:13;;;;;;;8.57;3.87;;;14.30;40.20;;;;;;10528812;28;20222;-69
2024/02/08 19:38:17;;;;;;;11.83;3.27;;;14.30;40.40;;;;;;10530175;28;20258;-69
2024/02/08 19:43:26;;;;;;;7.27;3.90;;;14.30;40.40;;;;;;10534060;28;20621;-68
2024/02/08 19:48:31;;;;;;;8.40;3.63;;;14.20;40.30;;;;;;10530983;28;20228;-68
2024/02/08 19:53:37;;;;;;;9.30;2.70;;;14.20;40.40;;;;;;10527668;28;20787;-68
2024/02/08 19:58:43;;;;;;;9.27;3.90;;;14.20;40.40;;;;;;10534223;28;20594;-68
2024/02/08 20:03:47;;;;;;;7.03;3.50;;;14.20;40.40;;;;;;10522591;27;20235;-68
2024/02/08 20:08:54;;;;;;;5.47;3.00;;;14.20;40.30;;;;;;10528105;28;20295;-68
2024/02/08 20:14:00;;;;;;;6.60;3.30;;;14.30;40.40;;;;;;10527961;28;20683;-68
2024/02/08 20:19:08;;;;;;;6.60;3.10;;;14.20;40.20;;;;;;10531382;28;20645;-69
2024/02/08 20:24:13;;;;;;;9.63;3.40;;;14.20;40.10;;;;;;10532093;28;20315;-69
2024/02/08 20:29:19;;;;;;;7.10;3.77;;;14.10;40.20;;;;;;10516482;28;20314;-69
2024/02/08 20:34:23;;;;;;;11.27;3.57;;;14.10;40.20;;;;;;10525543;28;20870;-69
2024/02/08 20:39:33;;;;;;;8.70;3.80;;;14.00;40.10;;;;;;10523181;28;21221;-70
2024/02/08 20:44:37;;;;;;;7.87;3.37;;;14.00;40.30;;;;;;10516767;28;20234;-70
2024/02/08 20:49:42;;;;;;;8.93;4.20;;;13.90;40.40;;;;;;10520294;28;20227;-71
2024/02/08 20:54:48;;;;;;;11.93;5.17;;;13.80;40.40;;;;;;10519418;28;20223;-70
2024/02/08 20:59:54;;;;;;;10.03;4.97;;;13.80;40.50;;;;;;10523065;27;20222;-69
2024/02/08 21:04:58;;;;;;;10.33;4.00;;;13.70;40.40;;;;;;10507036;28;20232;-68
2024/02/08 21:10:01;;;;;;;8.00;3.70;;;13.70;40.50;;;;;;10523410;28;21679;-68
2024/02/08 21:15:08;;;;;;;6.10;3.50;;;13.70;40.60;;;;;;10518805;28;20950;-68
2024/02/08 21:20:15;;;;;;;7.57;3.33;;;13.60;40.50;;;;;;10524389;28;20846;-69
2024/02/08 21:25:19;;;;;;;9.33;3.80;;;13.60;40.50;;;;;;10527747;28;20232;-68
2024/02/08 21:30:25;;;;;;;7.80;3.50;;;13.60;40.70;;;;;;10531012;28;20234;-68
2024/02/08 21:35:28;;;;;;;8.17;3.40;;;13.60;40.70;;;;;;10532045;28;20231;-68
2024/02/08 21:40:33;;;;;;;6.80;3.27;;;13.60;40.60;;;;;;10530708;27;20234;-69
2024/02/08 21:45:41;;;;;;;7.53;3.27;;;13.60;40.70;;;;;;10528043;28;20242;-70
2024/02/08 21:50:47;;;;;;;7.63;2.80;;;13.60;40.80;;;;;;10524831;28;20245;-70
2024/02/08 21:55:50;;;;;;;9.10;3.13;;;13.70;40.80;;;;;;10531025;28;20230;-69
2024/02/08 22:00:55;;;;;;;11.53;4.97;;;13.70;40.40;;;;;;10530062;28;20228;-70
2024/02/08 22:06:20;;;;;;;9.20;3.77;;;13.80;40.40;;;;;;10526225;28;21057;-69
2024/02/08 22:11:24;;;;;;;10.67;3.93;;;13.80;40.20;;;;;;10526935;28;20239;-69
2024/02/08 22:16:29;;;;;;;7.93;3.47;;;13.70;40.30;;;;;;10532425;28;20273;-70
2024/02/08 22:21:32;;;;;;;7.47;3.33;;;13.60;40.50;;;;;;10531143;27;20942;-70
2024/02/08 22:26:35;;;;;;;10.47;4.20;;;13.50;40.30;;;;;;10534435;27;20303;-69
2024/02/08 22:31:40;;;;;;;7.73;3.57;;;13.30;40.60;;;;;;10536603;28;20219;-69
2024/02/08 22:36:43;;;;;;;9.70;3.40;;;13.20;40.80;;;;;;10524811;28;20230;-69
2024/02/08 22:41:49;;;;;;;6.80;4.60;;;13.20;41.00;;;;;;10535589;28;20225;-69
2024/02/08 22:46:55;;;;;;;13.30;3.50;;;13.10;41.30;;;;;;10532762;28;20223;-69
2024/02/08 22:52:00;;;;;;;7.77;3.17;;;13.10;41.50;;;;;;10528229;28;20234;-69
2024/02/08 22:57:05;;;;;;;8.80;3.53;;;13.10;41.30;;;;;;10531600;27;20231;-69
2024/02/08 23:02:16;;;;;;;7.47;3.77;;;13.10;41.30;;;;;;10531443;28;20314;-69
2024/02/08 23:07:19;;;;;;;7.30;3.80;;;13.10;41.70;;;;;;10533779;28;20238;-67
2024/02/08 23:12:24;;;;;;;7.87;3.40;;;13.10;41.50;;;;;;10525808;28;20219;-67
2024/02/08 23:17:29;;;;;;;7.60;3.23;;;13.00;41.60;;;;;;10523850;28;20243;-67
2024/02/08 23:22:33;;;;;;;7.50;3.30;;;12.90;42.00;;;;;;10528534;28;20232;-67
2024/02/08 23:27:37;;;;;;;6.77;3.60;;;12.90;42.00;;;;;;10530962;28;20227;-70
2024/02/08 23:32:47;;;;;;;7.10;3.43;;;12.90;42.20;;;;;;10529240;28;20230;-70
2024/02/08 23:37:55;;;;;;;7.97;3.53;;;12.80;42.40;;;;;;10534560;28;20242;-70
2024/02/08 23:43:00;;;;;;;10.50;3.77;;;12.80;42.40;;;;;;10532461;28;20259;-70
2024/02/08 23:48:06;;;;;;;8.40;3.37;;;12.80;42.40;;;;;;10531233;28;20276;-70
2024/02/08 23:53:10;;;;;;;8.50;3.60;;;12.80;42.40;;;;;;10529401;28;20231;-68
2024/02/08 23:58:14;;;;;;;8.93;3.70;;;12.80;42.40;;;;;;10529123;28;20219;-68
